Time;durP1;ratioP1;P1;durP2;ratioP2;P2;SDS_P1;SDS_P2;PMS_P1;PMS_P2;Temp;Humidity;BMP_temperature;BMP_pressure;BME280_temperature;BME280_humidity;BME280_pressure;Samples;Min_cycle;Max_cycle;Signal;HPM_P1;HPM_P2
2023/01/10 00:01:56;;;;;;;3.40;1.65;;;;;;;5.54;100.00;100000.75;5099476;28;20220;-74
2023/01/10 00:04:22;;;;;;;3.40;1.80;;;;;;;5.62;100.00;100006.72;5096451;28;20310;-74
2023/01/10 00:06:50;;;;;;;3.22;1.55;;;;;;;5.71;100.00;100020.72;5095176;28;20204;-73
2023/01/10 00:09:17;;;;;;;2.47;1.58;;;;;;;5.75;100.00;100025.06;5094095;28;20200;-72
2023/01/10 00:14:28;;;;;;;4.10;1.63;;;;;;;5.78;100.00;100032.97;5094792;28;20270;-71
2023/01/10 00:16:55;;;;;;;2.92;1.90;;;;;;;5.91;100.00;100044.16;5094770;28;20600;-72
2023/01/10 00:19:22;;;;;;;3.85;1.88;;;;;;;5.97;100.00;100044.88;5094003;28;20283;-76
2023/01/10 00:21:50;;;;;;;3.25;2.15;;;;;;;5.89;100.00;100048.66;5094444;28;20258;-71
2023/01/10 00:24:19;;;;;;;2.50;1.40;;;;;;;5.94;100.00;100047.63;5094579;28;20216;-73
2023/01/10 00:26:49;;;;;;;2.97;1.70;;;;;;;5.95;100.00;100054.72;5094022;28;20204;-73
2023/01/10 00:29:17;;;;;;;4.28;1.60;;;;;;;5.94;100.00;100058.31;5093512;28;20716;-71
2023/01/10 00:31:43;;;;;;;3.25;1.60;;;;;;;6.05;100.00;100057.97;5096017;28;20203;-71
2023/01/10 00:34:10;;;;;;;3.30;1.63;;;;;;;5.97;100.00;100051.97;5095863;28;20220;-72
2023/01/10 00:36:37;;;;;;;2.15;1.45;;;;;;;5.96;100.00;100055.59;5097376;28;20204;-73
2023/01/10 00:39:11;;;;;;;2.30;1.45;;;;;;;5.89;100.00;100062.03;5098266;28;20294;-73
2023/01/10 00:44:22;;;;;;;2.78;1.52;;;;;;;5.92;100.00;100081.50;5099353;28;20226;-73
2023/01/10 00:46:49;;;;;;;2.72;1.63;;;;;;;5.92;100.00;100081.50;5097659;28;20205;-73
2023/01/10 00:49:16;;;;;;;3.00;1.65;;;;;;;5.98;100.00;100091.16;5094129;28;20224;-72
2023/01/10 00:51:43;;;;;;;1.88;1.60;;;;;;;5.95;100.00;100102.84;5096053;28;20637;-73
2023/01/10 00:54:13;;;;;;;3.15;1.80;;;;;;;5.89;100.00;100113.69;5093973;28;20228;-73
2023/01/10 00:56:40;;;;;;;3.88;2.10;;;;;;;5.91;100.00;100122.53;5094251;28;20196;-73
2023/01/10 00:59:07;;;;;;;2.92;2.00;;;;;;;5.95;100.00;100124.22;5097196;28;20200;-71
2023/01/10 01:01:34;;;;;;;2.88;1.83;;;;;;;5.99;100.00;100130.34;5099479;28;20257;-73
2023/01/10 01:04:00;;;;;;;4.30;1.75;;;;;;;5.99;100.00;100144.59;5098621;28;20716;-73
2023/01/10 01:06:27;;;;;;;2.42;1.60;;;;;;;5.98;100.00;100155.31;5094951;28;20235;-73
2023/01/10 01:08:54;;;;;;;2.45;1.85;;;;;;;6.03;100.00;100164.94;5093375;28;20624;-73
2023/01/10 01:11:21;;;;;;;3.45;1.80;;;;;;;6.03;100.00;100162.28;5104781;28;20283;-72
2023/01/10 01:13:48;;;;;;;2.55;1.50;;;;;;;6.13;100.00;100186.06;5102119;28;20240;-72
2023/01/10 01:16:15;;;;;;;1.92;1.40;;;;;;;6.11;100.00;100180.78;5094068;28;20199;-73
2023/01/10 01:18:41;;;;;;;1.67;1.38;;;;;;;6.12;100.00;100189.66;5093171;28;20200;-72
2023/01/10 01:21:08;;;;;;;1.80;1.30;;;;;;;6.11;100.00;100193.28;5093348;28;20200;-72
2023/01/10 01:23:35;;;;;;;2.92;1.70;;;;;;;6.16;100.00;100205.56;5093175;28;20719;-73
2023/01/10 01:26:02;;;;;;;2.30;1.75;;;;;;;6.19;100.00;100202.78;5093598;28;20614;-72
2023/01/10 01:28:30;;;;;;;3.75;1.60;;;;;;;6.14;100.00;100211.88;5092690;28;20682;-71
2023/01/10 01:30:56;;;;;;;1.98;1.40;;;;;;;6.09;100.00;100211.16;5092883;28;20196;-72
2023/01/10 01:33:23;;;;;;;3.58;1.50;;;;;;;6.23;100.00;100222.31;5093597;28;20689;-74
2023/01/10 01:35:50;;;;;;;3.28;1.80;;;;;;;6.15;100.00;100232.34;5093042;28;20196;-73
2023/01/10 01:38:17;;;;;;;2.70;1.48;;;;;;;6.19;100.00;100234.88;5096824;28;20211;-72
2023/01/10 01:40:44;;;;;;;1.75;1.40;;;;;;;6.28;100.00;100238.22;5106650;28;20192;-72
2023/01/10 01:43:22;;;;;;;1.90;1.60;;;;;;;6.27;100.00;100245.34;5102396;28;20228;-71
2023/01/10 01:45:51;;;;;;;3.38;1.50;;;;;;;6.13;100.00;100253.78;5097805;28;20214;-72
2023/01/10 01:48:28;;;;;;;6.32;1.42;;;;;;;6.26;100.00;100259.63;5094339;28;20227;-73
2023/01/10 01:51:04;;;;;;;3.67;1.33;;;;;;;6.13;100.00;100266.25;5097485;28;20291;-73
2023/01/10 01:53:34;;;;;;;1.70;1.17;;;;;;;6.12;100.00;100261.84;5093684;28;20215;-73
2023/01/10 01:56:04;;;;;;;2.40;1.40;;;;;;;6.15;100.00;100268.00;5100233;28;20661;-73
2023/01/10 01:58:38;;;;;;;2.75;1.70;;;;;;;5.99;100.00;100274.69;5088155;28;20212;-72
2023/01/10 02:01:06;;;;;;;3.22;2.30;;;;;;;6.08;100.00;100282.44;5092864;28;20274;-73
2023/01/10 02:03:34;;;;;;;2.15;1.30;;;;;;;6.10;100.00;100291.31;5092864;28;20224;-73
2023/01/10 02:06:00;;;;;;;2.90;1.60;;;;;;;6.02;100.00;100301.34;5101307;28;20191;-73
2023/01/10 02:08:27;;;;;;;3.65;1.55;;;;;;;6.08;100.00;100305.63;5097566;28;20563;-73
2023/01/10 02:11:00;;;;;;;6.97;1.52;;;;;;;6.11;100.00;100313.59;5095678;28;20203;-73
2023/01/10 02:13:28;;;;;;;1.60;1.05;;;;;;;6.01;100.00;100310.28;5092293;28;20223;-73
2023/01/10 02:15:54;;;;;;;2.00;1.25;;;;;;;6.01;100.00;100313.81;5092148;28;20284;-73
2023/01/10 02:18:23;;;;;;;3.67;1.75;;;;;;;5.97;100.00;100314.84;5091517;28;20368;-74
2023/01/10 02:21:12;;;;;;;3.10;1.45;;;;;;;6.04;100.00;100316.44;5092579;28;20200;-74
2023/01/10 02:24:17;;;;;;;2.75;1.27;;;;;;;5.98;100.00;100311.25;5092384;28;20235;-74
2023/01/10 02:27:06;;;;;;;2.53;1.00;;;;;;;6.03;100.00;100320.00;5092238;28;20583;-73
2023/01/10 02:30:24;;;;;;;3.20;1.70;;;;;;;6.03;100.00;100320.00;5091382;28;20207;-73
2023/01/10 02:32:59;;;;;;;2.60;1.42;;;;;;;6.03;100.00;100330.69;5092636;28;20220;-73
2023/01/10 02:35:45;;;;;;;2.22;1.50;;;;;;;5.98;100.00;100335.31;5092540;28;20199;-73
2023/01/10 02:38:22;;;;;;;2.83;1.42;;;;;;;6.01;100.00;100337.00;5091377;28;20180;-74
2023/01/10 02:40:56;;;;;;;1.80;1.20;;;;;;;5.97;100.00;100343.34;5072159;28;20204;-73
2023/01/10 02:43:29;;;;;;;2.20;1.80;;;;;;;6.01;100.00;100348.56;5072408;28;20243;-74
2023/01/10 02:46:01;;;;;;;3.45;1.40;;;;;;;6.00;100.00;100357.53;5072698;28;20645;-74
2023/01/10 02:48:29;;;;;;;2.75;1.73;;;;;;;5.99;100.00;100355.78;5074306;28;20614;-72
2023/01/10 02:51:01;;;;;;;4.30;1.42;;;;;;;5.87;100.00;100348.06;5092256;28;20200;-74
2023/01/10 02:53:31;;;;;;;1.75;1.30;;;;;;;5.84;100.00;100356.16;5091748;28;20224;-73
2023/01/10 02:56:22;;;;;;;4.38;2.03;;;;;;;5.78;100.00;100359.00;5095517;28;20184;-73
2023/01/10 02:59:08;;;;;;;2.42;1.50;;;;;;;5.73;100.00;100360.91;5095265;28;20204;-73
2023/01/10 03:01:44;;;;;;;2.30;1.40;;;;;;;5.70;100.00;100355.63;5096434;28;20196;-72
2023/01/10 03:04:24;;;;;;;5.38;2.20;;;;;;;5.53;100.00;100359.63;5095852;28;20544;-71
2023/01/10 03:06:58;;;;;;;2.63;1.70;;;;;;;5.59;100.00;100372.81;5096037;28;20641;-74
2023/01/10 03:09:29;;;;;;;2.75;1.50;;;;;;;5.54;100.00;100380.09;5095346;28;20200;-73
2023/01/10 03:12:02;;;;;;;2.00;1.25;;;;;;;5.56;100.00;100383.59;5096345;28;20190;-72
2023/01/10 03:14:31;;;;;;;2.58;1.30;;;;;;;5.56;100.00;100388.94;5096236;28;20212;-70
2023/01/10 03:17:01;;;;;;;1.85;1.27;;;;;;;5.48;100.00;100398.94;5102782;28;20196;-76
2023/01/10 03:19:32;;;;;;;2.60;1.33;;;;;;;5.51;100.00;100401.50;5111852;28;20195;-74
2023/01/10 03:22:02;;;;;;;1.70;1.10;;;;;;;5.51;100.00;100404.19;5113261;28;20202;-73
2023/01/10 03:24:33;;;;;;;5.50;1.70;;;;;;;5.51;100.00;100398.84;5111439;28;20292;-72
2023/01/10 03:27:06;;;;;;;3.70;2.25;;;;;;;5.50;100.00;100401.56;5097424;28;20183;-75
2023/01/10 03:29:40;;;;;;;3.85;1.30;;;;;;;5.39;100.00;100418.72;5095989;28;20281;-72
2023/01/10 03:32:11;;;;;;;2.05;1.15;;;;;;;5.29;100.00;100421.63;5096517;28;20191;-72
2023/01/10 03:34:40;;;;;;;2.10;1.25;;;;;;;5.23;100.00;100433.38;5096557;28;20184;-74
2023/01/10 03:37:12;;;;;;;1.83;1.17;;;;;;;5.28;100.00;100436.78;5103051;28;20204;-74
2023/01/10 03:39:44;;;;;;;2.67;1.42;;;;;;;5.19;100.00;100442.34;5097221;28;20199;-72
2023/01/10 03:42:17;;;;;;;2.40;1.10;;;;;;;5.26;100.00;100446.63;5097843;28;20222;-73
2023/01/10 03:44:54;;;;;;;2.78;1.67;;;;;;;5.15;100.00;100454.00;5096058;28;20235;-72
2023/01/10 03:47:28;;;;;;;12.05;7.22;;;;;;;5.15;100.00;100457.53;5096643;28;20305;-73
2023/01/10 03:50:00;;;;;;;7.45;5.00;;;;;;;5.09;100.00;100460.38;5096346;28;20191;-73
2023/01/10 03:52:27;;;;;;;2.30;1.42;;;;;;;5.06;100.00;100465.75;5096094;28;20564;-74
2023/01/10 03:54:54;;;;;;;3.03;1.25;;;;;;;5.07;100.00;100472.00;5095855;28;20303;-73
2023/01/10 03:57:22;;;;;;;2.90;1.40;;;;;;;5.01;100.00;100475.66;5095908;28;20541;-74
2023/01/10 03:59:53;;;;;;;1.40;1.00;;;;;;;4.93;100.00;100477.59;5095009;28;20192;-73
2023/01/10 04:02:19;;;;;;;4.95;1.85;;;;;;;4.88;100.00;100482.16;5096050;28;20589;-73
2023/01/10 04:04:46;;;;;;;3.22;2.20;;;;;;;4.90;100.00;100493.69;5095370;28;20239;-73
2023/01/10 04:07:14;;;;;;;3.08;2.03;;;;;;;4.80;100.00;100496.56;5094222;28;20199;-73
2023/01/10 04:09:40;;;;;;;3.42;1.70;;;;;;;4.74;100.00;100499.34;5094032;28;20202;-73
2023/01/10 04:12:07;;;;;;;1.85;1.20;;;;;;;4.72;100.00;100494.94;5098434;28;20210;-74
2023/01/10 04:14:33;;;;;;;4.78;1.38;;;;;;;4.61;100.00;100495.16;5102521;28;20220;-72
2023/01/10 04:17:00;;;;;;;2.50;1.75;;;;;;;4.57;100.00;100493.47;5099645;28;20706;-72
2023/01/10 04:19:27;;;;;;;5.80;2.65;;;;;;;4.56;100.00;100499.69;5095916;28;20204;-72
2023/01/10 04:21:53;;;;;;;2.30;1.52;;;;;;;4.50;100.00;100507.81;5101153;28;20204;-73
2023/01/10 04:24:21;;;;;;;4.10;2.22;;;;;;;4.39;100.00;100508.91;5100393;28;20355;-73
2023/01/10 04:26:48;;;;;;;2.85;1.40;;;;;;;4.43;100.00;100524.84;5096082;28;20203;-71
2023/01/10 04:29:15;;;;;;;2.10;1.50;;;;;;;4.23;100.00;100525.19;5094464;28;20687;-72
2023/01/10 04:31:41;;;;;;;2.78;1.58;;;;;;;4.08;100.00;100527.22;5095302;28;20200;-74
2023/01/10 04:34:08;;;;;;;4.97;2.60;;;;;;;4.13;100.00;100532.47;5112020;28;20251;-73
2023/01/10 04:36:35;;;;;;;3.13;2.22;;;;;;;4.10;100.00;100529.88;5107807;28;20206;-72
2023/01/10 04:39:02;;;;;;;12.70;2.55;;;;;;;4.08;100.00;100527.22;5107120;28;20263;-72
2023/01/10 04:41:29;;;;;;;5.50;2.33;;;;;;;4.21;100.00;100529.69;5109342;28;20264;-71
2023/01/10 04:43:56;;;;;;;12.38;6.10;;;;;;;4.09;100.00;100533.41;5102478;28;20591;-73
2023/01/10 04:46:22;;;;;;;5.45;2.78;;;;;;;4.09;100.00;100533.41;5094579;28;20203;-74
2023/01/10 04:48:49;;;;;;;18.20;12.82;;;;;;;4.15;100.00;100546.66;5093302;28;20211;-73
2023/01/10 04:51:16;;;;;;;6.07;3.65;;;;;;;4.06;100.00;100544.13;5094281;28;20299;-74
2023/01/10 04:54:23;;;;;;;3.75;2.00;;;;;;;4.05;100.00;100540.59;5269760;22;20226;-77
2023/01/10 04:57:27;;;;;;;;;;;;;;;;;;;;;
2023/01/10 05:00:25;;;;;;;5.80;3.72;;;;;;;4.06;100.00;100562.78;5060841;28;20284;-75
2023/01/10 05:03:03;;;;;;;8.30;4.07;;;;;;;4.15;100.00;100567.97;5056064;28;20659;-75
2023/01/10 05:05:46;;;;;;;7.22;2.90;;;;;;;4.28;100.00;100566.00;5034754;28;20194;-74
2023/01/10 05:11:22;;;;;;;4.47;2.78;;;;;;;4.34;100.00;100560.53;5029263;28;20282;-76
2023/01/10 05:17:30;;;;;;;4.43;2.85;;;;;;;4.28;100.00;100579.31;4981241;28;20192;-74
2023/01/10 05:23:42;;;;;;;12.50;3.25;;;;;;;4.27;100.00;100596.22;4979271;28;20748;-74
2023/01/10 05:26:22;;;;;;;7.15;4.70;;;;;;;4.33;100.00;100591.66;4999912;28;20223;-75
2023/01/10 05:28:57;;;;;;;6.95;4.18;;;;;;;4.50;100.00;100594.06;4999888;28;20266;-72
2023/01/10 05:31:52;;;;;;;;;;;;;;;;;;;;;
2023/01/10 05:37:57;;;;;;;6.70;3.92;;;;;;;5.03;100.00;100604.66;4995876;28;20211;-72
2023/01/10 05:43:26;;;;;;;8.38;4.28;;;;;;;5.29;100.00;100619.25;5016025;28;20687;-74
2023/01/10 05:45:53;;;;;;;10.32;3.72;;;;;;;5.35;100.00;100621.81;5030478;28;20264;-74
2023/01/10 05:48:21;;;;;;;13.38;4.25;;;;;;;5.40;100.00;100628.84;5014843;28;20213;-75
2023/01/10 05:50:49;;;;;;;17.55;4.10;;;;;;;5.38;100.00;100632.44;5014245;28;20581;-75
2023/01/10 05:53:16;;;;;;;7.05;3.88;;;;;;;5.23;100.00;100634.50;5021443;28;20305;-75
2023/01/10 05:55:42;;;;;;;6.55;3.30;;;;;;;5.19;100.00;100623.91;5076810;28;20220;-75
2023/01/10 05:58:09;;;;;;;7.45;3.80;;;;;;;5.14;100.00;100626.69;5076233;28;20192;-75
2023/01/10 06:00:36;;;;;;;9.95;3.00;;;;;;;5.15;100.00;100632.88;5077579;28;20303;-75
2023/01/10 06:03:03;;;;;;;5.82;3.50;;;;;;;5.16;100.00;100640.88;5060581;28;20559;-74
2023/01/10 06:05:31;;;;;;;8.02;4.05;;;;;;;5.08;100.00;100647.28;5059483;28;20220;-75
2023/01/10 06:07:58;;;;;;;10.38;3.70;;;;;;;5.10;100.00;100646.31;5055687;28;20207;-75
2023/01/10 06:10:24;;;;;;;9.73;4.07;;;;;;;5.07;100.00;100657.06;5055762;28;20216;-75
2023/01/10 06:12:51;;;;;;;10.20;4.75;;;;;;;5.15;100.00;100667.59;5054881;28;20285;-75
2023/01/10 06:15:18;;;;;;;5.57;3.72;;;;;;;5.21;100.00;100675.50;5056520;28;20604;-75
2023/01/10 06:17:48;;;;;;;5.35;3.50;;;;;;;5.30;100.00;100679.78;5064324;28;20644;-73
2023/01/10 06:20:14;;;;;;;8.85;3.75;;;;;;;5.22;100.00;100675.47;5058196;28;20236;-74
2023/01/10 06:22:43;;;;;;;5.35;4.13;;;;;;;5.31;100.00;100682.41;5059670;28;20204;-75
2023/01/10 06:25:11;;;;;;;8.00;3.50;;;;;;;5.39;100.00;100698.31;5057410;28;20228;-74
2023/01/10 06:27:39;;;;;;;4.63;3.30;;;;;;;5.48;100.00;100692.78;5054904;28;20581;-75
2023/01/10 06:30:08;;;;;;;5.38;2.97;;;;;;;5.60;100.00;100695.19;5054546;28;20205;-75
2023/01/10 06:32:35;;;;;;;17.95;3.42;;;;;;;5.58;100.00;100689.00;5055532;28;20201;-74
2023/01/10 06:35:02;;;;;;;4.10;2.88;;;;;;;5.58;100.00;100693.47;5062438;28;20724;-74
2023/01/10 06:37:29;;;;;;;5.80;2.83;;;;;;;5.60;100.00;100697.88;5075706;28;20200;-75
2023/01/10 06:39:57;;;;;;;13.00;3.85;;;;;;;5.57;100.00;100705.97;5075400;28;20209;-75
2023/01/10 06:42:23;;;;;;;9.23;3.78;;;;;;;5.64;100.00;100702.25;5077326;28;20214;-76
2023/01/10 06:44:50;;;;;;;7.60;3.10;;;;;;;5.73;100.00;100708.31;5074740;28;20567;-75
2023/01/10 06:47:16;;;;;;;10.20;3.10;;;;;;;5.74;100.00;100712.75;5074620;28;20211;-75
2023/01/10 06:49:43;;;;;;;5.72;4.05;;;;;;;5.78;100.00;100728.69;5075550;28;20211;-74
2023/01/10 06:52:10;;;;;;;5.63;2.97;;;;;;;5.82;100.00;100734.84;5075518;28;20204;-74
2023/01/10 06:54:36;;;;;;;5.43;2.33;;;;;;;5.80;100.00;100744.69;5075666;28;20260;-74
2023/01/10 06:57:04;;;;;;;4.57;2.53;;;;;;;5.80;100.00;100750.91;5074864;28;20200;-73
2023/01/10 06:59:31;;;;;;;5.28;2.85;;;;;;;5.70;100.00;100757.38;5084696;28;20681;-74
2023/01/10 07:01:57;;;;;;;8.80;3.10;;;;;;;5.67;100.00;100752.06;5092688;28;20207;-75
2023/01/10 07:04:25;;;;;;;10.05;3.97;;;;;;;5.60;100.00;100748.63;5093213;28;20278;-74
2023/01/10 07:06:52;;;;;;;12.90;3.58;;;;;;;5.63;100.00;100737.91;5095971;28;20188;-74
2023/01/10 07:09:18;;;;;;;6.72;3.22;;;;;;;5.47;100.00;100736.41;5093518;28;20189;-74
2023/01/10 07:11:45;;;;;;;7.95;3.05;;;;;;;5.45;100.00;100738.28;5092670;28;20204;-75
2023/01/10 07:14:13;;;;;;;7.22;2.80;;;;;;;5.41;100.00;100742.78;5089554;28;20228;-75
2023/01/10 07:16:39;;;;;;;8.55;3.13;;;;;;;5.36;100.00;100751.75;5085346;28;20283;-73
2023/01/10 07:19:06;;;;;;;7.32;3.08;;;;;;;5.36;100.00;100762.44;5074754;28;20209;-75
2023/01/10 07:21:32;;;;;;;5.30;2.80;;;;;;;5.34;100.00;100765.16;5076531;28;20296;-74
2023/01/10 07:23:59;;;;;;;7.10;2.85;;;;;;;5.30;100.00;100782.16;5075000;28;20577;-74
2023/01/10 07:26:25;;;;;;;8.98;3.25;;;;;;;5.37;100.00;100785.59;5075154;28;20201;-75
2023/01/10 07:28:52;;;;;;;4.63;2.40;;;;;;;5.33;100.00;100786.56;5073693;28;20334;-75
2023/01/10 07:31:22;;;;;;;7.25;2.67;;;;;;;5.32;100.00;100796.38;5074142;28;20205;-74
2023/01/10 07:33:50;;;;;;;7.30;2.85;;;;;;;5.36;100.00;100803.41;5074858;28;20225;-76
2023/01/10 07:36:17;;;;;;;9.80;3.47;;;;;;;5.36;100.00;100807.84;5074472;28;20199;-73
2023/01/10 07:38:44;;;;;;;9.38;2.90;;;;;;;5.36;100.00;100805.19;5074223;28;20201;-74
2023/01/10 07:41:10;;;;;;;7.47;3.05;;;;;;;5.29;100.00;100800.88;5074393;28;20226;-76
2023/01/10 07:43:37;;;;;;;10.55;2.55;;;;;;;5.21;100.00;100804.56;5077816;28;20220;-74
2023/01/10 07:46:08;;;;;;;8.80;2.90;;;;;;;5.27;100.00;100824.03;5079454;28;20221;-74
2023/01/10 07:48:36;;;;;;;6.88;2.42;;;;;;;5.33;100.00;100834.63;5078254;28;20184;-75
2023/01/10 07:51:04;;;;;;;8.48;3.40;;;;;;;5.35;100.00;100832.81;5081504;28;20208;-74
2023/01/10 07:53:32;;;;;;;5.88;2.20;;;;;;;5.44;100.00;100836.19;5078272;28;20717;-74
2023/01/10 07:55:59;;;;;;;6.15;2.55;;;;;;;5.46;100.00;100841.53;5081015;28;20221;-75
2023/01/10 07:58:26;;;;;;;7.45;2.83;;;;;;;5.48;100.00;100842.38;5079443;28;20204;-75
2023/01/10 08:00:56;;;;;;;8.82;2.40;;;;;;;5.70;100.00;100839.31;5079372;28;20263;-74
2023/01/10 08:03:23;;;;;;;7.45;2.55;;;;;;;5.96;100.00;100837.06;5079348;28;20217;-75
2023/01/10 08:05:57;;;;;;;8.15;2.80;;;;;;;5.80;100.00;100844.47;5078290;28;20220;-74
2023/01/10 08:08:24;;;;;;;6.43;2.45;;;;;;;5.76;100.00;100849.91;5077735;28;20316;-76
2023/01/10 08:10:50;;;;;;;6.10;2.47;;;;;;;5.96;100.00;100829.06;5077571;28;20203;-75
2023/01/10 08:13:17;;;;;;;6.57;2.85;;;;;;;6.46;100.00;100836.97;5077686;28;20312;-76
2023/01/10 08:15:44;;;;;;;8.00;3.63;;;;;;;6.60;100.00;100836.66;5077641;28;20239;-75
2023/01/10 08:18:10;;;;;;;7.55;2.65;;;;;;;6.91;100.00;100841.31;5077406;28;20743;-74
2023/01/10 08:20:37;;;;;;;11.00;2.95;;;;;;;7.06;100.00;100838.28;5077878;28;20196;-75
2023/01/10 08:23:05;;;;;;;5.38;2.40;;;;;;;7.36;100.00;100849.16;5077024;28;20204;-74
2023/01/10 08:25:32;;;;;;;6.75;2.75;;;;;;;7.43;100.00;100853.44;5087917;28;20315;-73
2023/01/10 08:27:58;;;;;;;7.05;3.08;;;;;;;7.69;100.00;100853.66;5080238;28;20204;-74
2023/01/10 08:30:25;;;;;;;7.70;2.55;;;;;;;7.78;100.00;100854.31;5081486;28;20214;-75
2023/01/10 08:32:52;;;;;;;6.40;2.50;;;;;;;7.42;100.00;100860.63;5081544;28;20206;-74
2023/01/10 08:35:18;;;;;;;4.28;2.35;;;;;;;7.06;100.00;100863.28;5078228;28;20193;-75
2023/01/10 08:37:45;;;;;;;8.35;3.45;;;;;;;7.42;100.00;100862.44;5076961;28;20628;-74
2023/01/10 08:40:13;;;;;;;9.25;2.85;;;;;;;7.77;100.00;100869.53;5077476;28;20201;-75
2023/01/10 08:42:40;;;;;;;7.78;2.75;;;;;;;8.04;100.00;100869.72;5078864;28;20196;-75
2023/01/10 08:45:08;;;;;;;5.80;2.85;;;;;;;8.23;100.00;100867.41;5081776;28;20250;-74
2023/01/10 08:47:35;;;;;;;6.93;2.65;;;;;;;8.63;100.00;100866.28;5076754;28;20212;-74
2023/01/10 08:50:02;;;;;;;9.65;3.20;;;;;;;8.94;100.00;100867.09;5078373;28;20197;-75
2023/01/10 08:52:30;;;;;;;4.75;1.80;;;;;;;9.16;100.00;100877.19;5092068;28;20211;-76
2023/01/10 08:54:57;;;;;;;9.00;2.42;;;;;;;8.53;100.00;100871.06;5098994;28;20275;-77
2023/01/10 08:57:25;;;;;;;14.55;3.45;;;;;;;8.41;100.00;100882.13;5099074;28;20191;-77
2023/01/10 08:59:51;;;;;;;7.03;2.90;;;;;;;8.65;100.00;100878.75;5098966;28;20216;-77
2023/01/10 09:02:18;;;;;;;5.10;2.40;;;;;;;8.51;100.00;100876.47;5081940;28;20192;-77
2023/01/10 09:04:44;;;;;;;7.95;2.55;;;;;;;8.72;100.00;100885.69;5099062;28;20220;-77
2023/01/10 09:07:11;;;;;;;9.05;4.10;;;;;;;8.71;100.00;100883.94;5098886;28;20252;-75
2023/01/10 09:09:37;;;;;;;8.35;2.80;;;;;;;8.94;100.00;100891.28;5095845;28;20252;-75
2023/01/10 09:12:53;;;;;;;7.25;2.20;;;;;;;9.04;100.00;100893.69;5080511;28;20573;-74
2023/01/10 09:14:53;;;;;;;8.75;2.03;;;;;;;9.11;100.00;100893.47;5079923;28;20238;-74
2023/01/10 09:17:19;;;;;;;8.75;2.75;;;;;;;8.95;100.00;100897.53;5077284;28;20581;-74
2023/01/10 09:19:46;;;;;;;8.25;2.70;;;;;;;9.35;100.00;100897.16;5076209;28;20288;-76
2023/01/10 09:22:12;;;;;;;10.98;3.50;;;;;;;9.28;100.00;100900.97;5076854;28;20686;-75
2023/01/10 09:24:40;;;;;;;8.52;3.35;;;;;;;9.41;100.00;100896.09;5075815;28;20594;-75
2023/01/10 09:27:07;;;;;;;7.65;2.45;;;;;;;9.97;100.00;100908.53;5076529;28;20226;-75
2023/01/10 09:29:33;;;;;;;9.93;2.47;;;;;;;10.38;100.00;100915.19;5075476;28;20684;-75
2023/01/10 09:32:01;;;;;;;6.65;2.85;;;;;;;10.30;100.00;100908.31;5076758;28;20205;-74
2023/01/10 09:34:28;;;;;;;8.25;2.63;;;;;;;10.62;100.00;100910.69;5078377;28;20224;-73
2023/01/10 09:36:54;;;;;;;6.25;2.50;;;;;;;10.59;100.00;100913.50;5075618;28;20200;-75
2023/01/10 09:39:21;;;;;;;9.23;3.10;;;;;;;10.37;100.00;100909.84;5074985;28;20204;-74
2023/01/10 09:42:15;;;;;;;10.25;2.95;;;;;;;10.26;100.00;100920.97;5075994;28;20570;-75
2023/01/10 09:44:49;;;;;;;8.07;2.78;;;;;;;10.83;100.00;100921.59;5075389;28;20686;-75
2023/01/10 09:47:24;;;;;;;6.82;2.50;;;;;;;11.04;100.00;100918.09;5075275;28;20536;-73
2023/01/10 09:50:05;;;;;;;6.03;2.25;;;;;;;11.05;100.00;100918.97;5074309;28;20199;-74
2023/01/10 09:52:37;;;;;;;11.65;2.60;;;;;;;10.75;100.00;100923.72;5076460;28;20188;-75
2023/01/10 09:55:17;;;;;;;5.53;2.25;;;;;;;10.37;100.00;100923.31;5079752;28;20232;-75
2023/01/10 09:57:44;;;;;;;7.28;2.33;;;;;;;9.80;100.00;100928.84;5078684;28;20202;-74
2023/01/10 10:00:17;;;;;;;6.90;3.30;;;;;;;10.19;100.00;100936.47;5074863;28;20201;-76
2023/01/10 10:02:51;;;;;;;5.88;2.20;;;;;;;10.67;100.00;100933.91;5076392;28;20191;-74
2023/01/10 10:05:20;;;;;;;4.38;2.28;;;;;;;11.02;100.00;100938.84;5076721;28;20697;-75
2023/01/10 10:07:52;;;;;;;9.00;2.00;;;;;;;10.66;100.00;100933.03;5076901;28;20200;-73
2023/01/10 10:10:25;;;;;;;6.57;2.10;;;;;;;9.72;100.00;100930.03;5078195;28;20568;-75
2023/01/10 10:13:13;;;;;;;7.45;1.92;;;;;;;8.77;100.00;100937.47;5076376;28;20201;-74
2023/01/10 10:15:49;;;;;;;10.75;2.55;;;;;;;8.25;100.00;100940.69;5076380;28;20185;-75
2023/01/10 10:18:29;;;;;;;8.32;2.13;;;;;;;9.13;100.00;100936.38;5075629;28;20231;-74
2023/01/10 10:21:01;;;;;;;8.43;2.67;;;;;;;10.34;100.00;100932.38;5075610;28;20295;-74
2023/01/10 10:24:01;;;;;;;8.90;3.15;;;;;;;10.74;100.00;100927.34;5075901;28;20713;-75
2023/01/10 10:26:33;;;;;;;4.88;1.80;;;;;;;11.01;100.00;100936.19;5073685;28;20216;-75
2023/01/10 10:29:16;;;;;;;5.18;2.05;;;;;;;10.74;100.00;100944.41;5077117;28;20185;-76
2023/01/10 10:32:03;;;;;;;6.25;2.75;;;;;;;9.93;100.00;100933.81;5075529;28;20640;-76
2023/01/10 10:34:36;;;;;;;8.90;3.30;;;;;;;9.88;100.00;100930.38;5074770;28;20220;-74
2023/01/10 10:37:09;;;;;;;6.25;2.25;;;;;;;10.00;100.00;100947.00;5075618;28;20193;-75
2023/01/10 10:39:39;;;;;;;7.13;2.80;;;;;;;9.69;100.00;100932.81;5076873;28;20208;-74
2023/01/10 10:42:12;;;;;;;7.25;2.50;;;;;;;10.22;100.00;100925.59;5075551;28;20295;-75
2023/01/10 10:44:41;;;;;;;10.23;3.20;;;;;;;11.10;100.00;100938.53;5075228;28;20315;-75
2023/01/10 10:47:15;;;;;;;10.35;3.40;;;;;;;11.36;100.00;100931.25;5074829;28;20271;-75
2023/01/10 10:49:49;;;;;;;7.10;2.10;;;;;;;10.47;100.00;100938.22;5074033;28;20181;-75
2023/01/10 10:52:23;;;;;;;11.32;3.15;;;;;;;10.20;100.00;100935.53;5057297;28;20218;-74
2023/01/10 10:54:50;;;;;;;9.05;2.70;;;;;;;9.14;100.00;100932.78;5102298;22;20252;-74
2023/01/10 10:57:17;;;;;;;9.88;2.88;;;;;;;9.22;100.00;100937.91;5094854;28;20238;-74
2023/01/10 10:59:47;;;;;;;7.30;2.88;;;;;;;8.98;100.00;100935.94;5095808;28;20208;-75
2023/01/10 11:02:22;;;;;;;6.88;2.50;;;;;;;9.53;100.00;100935.13;5093297;28;20202;-74
2023/01/10 11:04:53;;;;;;;7.72;2.75;;;;;;;9.40;100.00;100932.81;5095768;28;20220;-75
2023/01/10 11:07:20;;;;;;;8.90;3.13;;;;;;;9.01;100.00;100940.34;5075327;28;20284;-74
2023/01/10 11:09:51;;;;;;;8.68;2.83;;;;;;;8.75;100.00;100936.63;5075055;28;20193;-74
2023/01/10 11:12:19;;;;;;;6.70;2.50;;;;;;;8.77;100.00;100940.16;5086748;28;20205;-75
2023/01/10 11:14:48;;;;;;;7.03;2.33;;;;;;;8.57;100.00;100934.50;5079365;28;20258;-74
2023/01/10 11:17:20;;;;;;;9.07;2.65;;;;;;;8.87;100.00;100929.16;5079938;28;20236;-74
2023/01/10 11:20:00;;;;;;;7.93;2.58;;;;;;;8.85;100.00;100934.56;5076494;28;20205;-75
2023/01/10 11:22:30;;;;;;;7.45;3.17;;;;;;;8.54;100.00;100931.88;5079125;28;20207;-75
2023/01/10 11:25:00;;;;;;;7.97;3.53;;;;;;;8.30;100.00;100936.09;5077709;28;20591;-75
2023/01/10 11:27:30;;;;;;;5.97;2.92;;;;;;;8.09;100.00;100935.72;5080831;28;20197;-75
2023/01/10 11:29:59;;;;;;;6.90;1.77;;;;;;;7.95;100.00;100937.91;5083882;28;20291;-74
2023/01/10 11:32:34;;;;;;;9.65;2.88;;;;;;;7.97;100.00;100938.75;5082360;28;20268;-74
2023/01/10 11:35:06;;;;;;;8.00;2.65;;;;;;;8.02;100.00;100935.94;5079975;28;20257;-73
2023/01/10 11:37:35;;;;;;;14.25;3.60;;;;;;;8.04;100.00;100948.41;5076604;28;20296;-75
2023/01/10 11:40:22;;;;;;;10.30;3.63;;;;;;;7.88;100.00;100945.22;5057900;28;20211;-74
2023/01/10 11:42:50;;;;;;;8.45;3.05;;;;;;;8.01;100.00;100936.88;5078389;28;20195;-74
2023/01/10 11:45:35;;;;;;;10.68;3.05;;;;;;;8.19;100.00;100931.03;5078715;28;20228;-74
2023/01/10 11:48:18;;;;;;;8.13;3.00;;;;;;;8.20;100.00;100919.34;5076561;28;20634;-74
2023/01/10 11:50:51;;;;;;;8.27;2.75;;;;;;;8.31;100.00;100919.06;5079580;28;20191;-74
2023/01/10 11:53:39;;;;;;;9.05;2.95;;;;;;;7.94;100.00;100928.13;5089729;28;20205;-74
2023/01/10 11:56:10;;;;;;;9.27;3.00;;;;;;;7.93;100.00;100924.53;5095295;28;20192;-74
2023/01/10 11:58:38;;;;;;;6.63;2.97;;;;;;;7.85;100.00;100915.81;5088310;28;20215;-74
2023/01/10 12:01:06;;;;;;;12.90;3.42;;;;;;;7.87;100.00;100916.66;5085860;28;20196;-74
2023/01/10 12:03:36;;;;;;;14.25;3.83;;;;;;;7.89;100.00;100917.50;5079099;28;20321;-74
2023/01/10 12:06:08;;;;;;;8.73;3.42;;;;;;;7.97;100.00;100919.09;5087597;28;20215;-75